sensor_id;sensor_type;location;lat;lon;timestamp;pressure;altitude;pressure_sealevel;temperature;humidity
4814;BME280;15375;48.540;9.268;2023-01-30T00:00:31;97995.00;;;-2.82;100.00
4814;BME280;15375;48.540;9.268;2023-01-30T00:02:56;97976.16;;;-2.86;100.00
4814;BME280;15375;48.540;9.268;2023-01-30T00:05:22;97978.50;;;-2.67;100.00
4814;BME280;15375;48.540;9.268;2023-01-30T00:07:47;97935.94;;;-2.72;100.00
4814;BME280;15375;48.540;9.268;2023-01-30T00:10:13;97959.28;;;-2.43;100.00
4814;BME280;15375;48.540;9.268;2023-01-30T00:12:38;97938.25;;;-2.53;100.00
4814;BME280;15375;48.540;9.268;2023-01-30T00:15:04;97945.94;;;-2.43;100.00
4814;BME280;15375;48.540;9.268;2023-01-30T00:17:30;97965.25;;;-2.29;100.00
4814;BME280;15375;48.540;9.268;2023-01-30T00:19:55;97948.75;;;-2.40;100.00
4814;BME280;15375;48.540;9.268;2023-01-30T00:22:20;97958.16;;;-2.34;100.00
4814;BME280;15375;48.540;9.268;2023-01-30T00:24:46;97932.13;;;-2.54;100.00
4814;BME280;15375;48.540;9.268;2023-01-30T00:27:11;97936.22;;;-2.57;100.00
4814;BME280;15375;48.540;9.268;2023-01-30T00:29:36;97958.50;;;-2.44;100.00
4814;BME280;15375;48.540;9.268;2023-01-30T00:32:02;97956.66;;;-2.52;100.00
4814;BME280;15375;48.540;9.268;2023-01-30T00:34:27;97939.38;;;-2.63;100.00
4814;BME280;15375;48.540;9.268;2023-01-30T00:36:53;97908.94;;;-2.79;100.00
4814;BME280;15375;48.540;9.268;2023-01-30T00:39:18;97934.34;;;-2.56;100.00
4814;BME280;15375;48.540;9.268;2023-01-30T00:41:43;97928.38;;;-2.53;100.00
4814;BME280;15375;48.540;9.268;2023-01-30T00:44:27;97949.84;;;-2.41;100.00
4814;BME280;15375;48.540;9.268;2023-01-30T00:47:11;97942.50;;;-2.52;100.00
4814;BME280;15375;48.540;9.268;2023-01-30T00:49:37;97945.31;;;-2.49;100.00
4814;BME280;15375;48.540;9.268;2023-01-30T00:52:03;97913.78;;;-2.64;100.00
4814;BME280;15375;48.540;9.268;2023-01-30T00:54:29;97906.88;;;-2.65;100.00
4814;BME280;15375;48.540;9.268;2023-01-30T00:56:54;97914.38;;;-2.50;100.00
4814;BME280;15375;48.540;9.268;2023-01-30T00:59:19;97930.38;;;-2.41;100.00
4814;BME280;15375;48.540;9.268;2023-01-30T01:01:45;97827.50;;;-3.11;100.00
4814;BME280;15375;48.540;9.268;2023-01-30T01:04:10;97839.91;;;-3.06;100.00
4814;BME280;15375;48.540;9.268;2023-01-30T01:06:37;97936.38;;;-2.53;100.00
4814;BME280;15375;48.540;9.268;2023-01-30T01:09:03;97909.56;;;-2.74;100.00
4814;BME280;15375;48.540;9.268;2023-01-30T01:11:28;97922.09;;;-2.74;100.00
4814;BME280;15375;48.540;9.268;2023-01-30T01:13:59;97952.72;;;-2.54;100.00
4814;BME280;15375;48.540;9.268;2023-01-30T01:16:26;97958.81;;;-2.54;100.00
4814;BME280;15375;48.540;9.268;2023-01-30T01:18:53;97928.88;;;-2.77;100.00
4814;BME280;15375;48.540;9.268;2023-01-30T01:21:19;97961.53;;;-2.63;100.00
4814;BME280;15375;48.540;9.268;2023-01-30T01:23:53;97900.47;;;-3.07;100.00
4814;BME280;15375;48.540;9.268;2023-01-30T01:26:19;97977.38;;;-2.66;100.00
4814;BME280;15375;48.540;9.268;2023-01-30T01:28:45;97949.78;;;-2.87;100.00
4814;BME280;15375;48.540;9.268;2023-01-30T01:31:12;97974.09;;;-2.80;100.00
4814;BME280;15375;48.540;9.268;2023-01-30T01:33:37;97970.19;;;-2.83;100.00
4814;BME280;15375;48.540;9.268;2023-01-30T01:36:03;98011.00;;;-2.82;100.00
4814;BME280;15375;48.540;9.268;2023-01-30T01:38:29;97989.50;;;-3.03;100.00
4814;BME280;15375;48.540;9.268;2023-01-30T01:40:54;97995.13;;;-3.13;100.00
4814;BME280;15375;48.540;9.268;2023-01-30T01:43:27;97991.66;;;-3.22;100.00
4814;BME280;15375;48.540;9.268;2023-01-30T01:46:08;98003.09;;;-3.22;100.00
4814;BME280;15375;48.540;9.268;2023-01-30T01:48:40;98018.19;;;-3.17;100.00
4814;BME280;15375;48.540;9.268;2023-01-30T01:51:25;98020.84;;;-3.26;100.00
4814;BME280;15375;48.540;9.268;2023-01-30T01:53:56;98026.19;;;-3.26;100.00
4814;BME280;15375;48.540;9.268;2023-01-30T01:56:23;97935.84;;;-3.83;100.00
4814;BME280;15375;48.540;9.268;2023-01-30T01:58:55;98015.34;;;-3.38;100.00
4814;BME280;15375;48.540;9.268;2023-01-30T02:01:22;98015.16;;;-3.41;100.00
4814;BME280;15375;48.540;9.268;2023-01-30T02:03:52;97996.16;;;-3.40;100.00
4814;BME280;15375;48.540;9.268;2023-01-30T02:06:20;97957.25;;;-3.58;100.00
4814;BME280;15375;48.540;9.268;2023-01-30T02:08:49;97975.00;;;-3.36;100.00
4814;BME280;15375;48.540;9.268;2023-01-30T02:11:17;97999.19;;;-3.07;100.00
4814;BME280;15375;48.540;9.268;2023-01-30T02:13:46;97974.56;;;-3.12;100.00
4814;BME280;15375;48.540;9.268;2023-01-30T02:16:12;97961.69;;;-3.19;100.00
4814;BME280;15375;48.540;9.268;2023-01-30T02:18:39;97995.91;;;-2.87;100.00
4814;BME280;15375;48.540;9.268;2023-01-30T02:38:07;98003.28;;;-2.32;100.00
4814;BME280;15375;48.540;9.268;2023-01-30T02:40:43;97928.72;;;-2.89;100.00
4814;BME280;15375;48.540;9.268;2023-01-30T02:43:35;97985.25;;;-2.52;100.00
4814;BME280;15375;48.540;9.268;2023-01-30T02:46:08;98001.09;;;-2.47;100.00
4814;BME280;15375;48.540;9.268;2023-01-30T02:48:56;97994.97;;;-2.48;100.00
4814;BME280;15375;48.540;9.268;2023-01-30T02:51:29;97942.97;;;-2.50;100.00
4814;BME280;15375;48.540;9.268;2023-01-30T02:53:56;97949.22;;;-2.38;100.00
4814;BME280;15375;48.540;9.268;2023-01-30T02:56:23;97916.09;;;-2.54;100.00
4814;BME280;15375;48.540;9.268;2023-01-30T02:58:53;97878.00;;;-2.80;100.00
4814;BME280;15375;48.540;9.268;2023-01-30T03:07:23;97977.47;;;-2.20;100.00
4814;BME280;15375;48.540;9.268;2023-01-30T03:10:00;97951.09;;;-2.30;100.00
4814;BME280;15375;48.540;9.268;2023-01-30T03:12:48;97954.97;;;-2.19;100.00
4814;BME280;15375;48.540;9.268;2023-01-30T03:15:27;97946.94;;;-2.10;100.00
4814;BME280;15375;48.540;9.268;2023-01-30T03:17:54;97961.72;;;-2.13;100.00
4814;BME280;15375;48.540;9.268;2023-01-30T03:20:21;97960.31;;;-2.19;100.00
4814;BME280;15375;48.540;9.268;2023-01-30T03:22:46;97975.75;;;-2.24;100.00
4814;BME280;15375;48.540;9.268;2023-01-30T03:25:21;97966.63;;;-2.23;100.00
4814;BME280;15375;48.540;9.268;2023-01-30T03:27:49;97960.97;;;-2.22;100.00
4814;BME280;15375;48.540;9.268;2023-01-30T03:30:16;97904.50;;;-2.58;100.00
4814;BME280;15375;48.540;9.268;2023-01-30T03:32:41;97908.72;;;-2.48;100.00
4814;BME280;15375;48.540;9.268;2023-01-30T03:35:07;97929.28;;;-2.49;100.00
4814;BME280;15375;48.540;9.268;2023-01-30T03:37:33;97923.03;;;-2.62;100.00
4814;BME280;15375;48.540;9.268;2023-01-30T03:39:59;97921.16;;;-2.61;100.00
4814;BME280;15375;48.540;9.268;2023-01-30T03:42:24;97870.34;;;-2.90;100.00
4814;BME280;15375;48.540;9.268;2023-01-30T03:44:50;97908.41;;;-2.55;100.00
4814;BME280;15375;48.540;9.268;2023-01-30T03:47:15;97846.84;;;-2.59;100.00
4814;BME280;15375;48.540;9.268;2023-01-30T03:49:40;97821.69;;;-2.49;100.00
4814;BME280;15375;48.540;9.268;2023-01-30T03:52:06;97788.34;;;-2.43;100.00
4814;BME280;15375;48.540;9.268;2023-01-30T03:54:31;97768.03;;;-2.36;100.00
4814;BME280;15375;48.540;9.268;2023-01-30T03:56:57;97819.28;;;-2.05;100.00
4814;BME280;15375;48.540;9.268;2023-01-30T03:59:22;97774.25;;;-2.52;100.00
4814;BME280;15375;48.540;9.268;2023-01-30T04:01:48;97864.84;;;-2.01;100.00
4814;BME280;15375;48.540;9.268;2023-01-30T04:04:13;97873.00;;;-1.98;100.00
4814;BME280;15375;48.540;9.268;2023-01-30T04:06:38;97898.13;;;-1.90;100.00
4814;BME280;15375;48.540;9.268;2023-01-30T04:09:04;97861.59;;;-2.07;100.00
4814;BME280;15375;48.540;9.268;2023-01-30T04:11:29;97875.31;;;-1.87;100.00
4814;BME280;15375;48.540;9.268;2023-01-30T04:13:55;97881.72;;;-1.80;100.00
4814;BME280;15375;48.540;9.268;2023-01-30T04:16:22;97906.97;;;-1.69;100.00
4814;BME280;15375;48.540;9.268;2023-01-30T04:18:48;97898.16;;;-1.69;100.00
4814;BME280;15375;48.540;9.268;2023-01-30T04:21:14;97887.41;;;-1.61;100.00
4814;BME280;15375;48.540;9.268;2023-01-30T04:23:40;97896.09;;;-1.64;100.00
4814;BME280;15375;48.540;9.268;2023-01-30T04:26:05;97865.41;;;-1.87;100.00
4814;BME280;15375;48.540;9.268;2023-01-30T04:28:31;97877.34;;;-1.84;100.00
4814;BME280;15375;48.540;9.268;2023-01-30T04:30:57;97865.88;;;-1.94;100.00
4814;BME280;15375;48.540;9.268;2023-01-30T04:33:22;97888.75;;;-1.75;100.00
4814;BME280;15375;48.540;9.268;2023-01-30T04:35:55;97873.69;;;-1.80;100.00
4814;BME280;15375;48.540;9.268;2023-01-30T04:38:21;97921.03;;;-1.51;100.00
4814;BME280;15375;48.540;9.268;2023-01-30T04:40:48;97858.34;;;-1.91;100.00
4814;BME280;15375;48.540;9.268;2023-01-30T04:43:14;97934.97;;;-1.46;100.00
4814;BME280;15375;48.540;9.268;2023-01-30T04:45:43;97913.69;;;-1.63;100.00
4814;BME280;15375;48.540;9.268;2023-01-30T04:48:08;97926.38;;;-1.51;100.00
4814;BME280;15375;48.540;9.268;2023-01-30T04:50:34;97864.41;;;-1.82;100.00
4814;BME280;15375;48.540;9.268;2023-01-30T04:52:59;97909.84;;;-1.53;100.00
4814;BME280;15375;48.540;9.268;2023-01-30T04:55:25;97896.47;;;-1.53;100.00
4814;BME280;15375;48.540;9.268;2023-01-30T04:57:50;97817.25;;;-2.08;100.00
4814;BME280;15375;48.540;9.268;2023-01-30T05:00:16;97798.56;;;-2.16;100.00
4814;BME280;15375;48.540;9.268;2023-01-30T05:02:41;97871.16;;;-1.76;100.00
4814;BME280;15375;48.540;9.268;2023-01-30T05:05:07;97881.41;;;-1.58;100.00
4814;BME280;15375;48.540;9.268;2023-01-30T05:07:32;97832.25;;;-1.95;100.00
4814;BME280;15375;48.540;9.268;2023-01-30T05:09:58;97894.47;;;-1.56;100.00
4814;BME280;15375;48.540;9.268;2023-01-30T05:12:23;97885.41;;;-1.64;100.00
4814;BME280;15375;48.540;9.268;2023-01-30T05:14:48;97913.88;;;-1.39;100.00
4814;BME280;15375;48.540;9.268;2023-01-30T05:17:14;97824.25;;;-1.95;100.00
4814;BME280;15375;48.540;9.268;2023-01-30T05:19:39;97922.47;;;-1.33;100.00
4814;BME280;15375;48.540;9.268;2023-01-30T05:22:05;97873.28;;;-1.61;100.00
4814;BME280;15375;48.540;9.268;2023-01-30T05:24:30;97893.91;;;-1.41;100.00
4814;BME280;15375;48.540;9.268;2023-01-30T05:26:55;97888.41;;;-1.45;100.00
4814;BME280;15375;48.540;9.268;2023-01-30T05:29:21;97771.22;;;-2.13;100.00
4814;BME280;15375;48.540;9.268;2023-01-30T05:31:46;97815.22;;;-1.81;100.00
4814;BME280;15375;48.540;9.268;2023-01-30T05:34:12;97831.38;;;-1.57;100.00
4814;BME280;15375;48.540;9.268;2023-01-30T05:36:37;97873.19;;;-1.32;100.00
4814;BME280;15375;48.540;9.268;2023-01-30T05:39:02;97834.13;;;-1.45;100.00
4814;BME280;15375;48.540;9.268;2023-01-30T05:41:28;97816.72;;;-1.51;100.00
4814;BME280;15375;48.540;9.268;2023-01-30T05:43:53;97858.84;;;-1.27;100.00
4814;BME280;15375;48.540;9.268;2023-01-30T05:46:19;97858.44;;;-1.17;100.00
4814;BME280;15375;48.540;9.268;2023-01-30T05:48:45;97824.34;;;-1.41;100.00
4814;BME280;15375;48.540;9.268;2023-01-30T05:51:19;97829.50;;;-1.36;100.00
4814;BME280;15375;48.540;9.268;2023-01-30T05:53:45;97841.28;;;-1.16;99.75
4814;BME280;15375;48.540;9.268;2023-01-30T05:56:11;97856.94;;;-1.06;100.00
4814;BME280;15375;48.540;9.268;2023-01-30T05:58:36;97801.84;;;-1.28;98.21
4814;BME280;15375;48.540;9.268;2023-01-30T06:01:04;97821.94;;;-1.01;96.63
4814;BME280;15375;48.540;9.268;2023-01-30T06:03:30;97834.69;;;-0.86;95.58
4814;BME280;15375;48.540;9.268;2023-01-30T06:05:55;97749.69;;;-1.34;94.12
4814;BME280;15375;48.540;9.268;2023-01-30T06:08:20;97816.25;;;-0.88;93.07
4814;BME280;15375;48.540;9.268;2023-01-30T06:10:46;97816.75;;;-0.86;91.74
4814;BME280;15375;48.540;9.268;2023-01-30T06:13:11;97827.47;;;-0.74;90.87
4814;BME280;15375;48.540;9.268;2023-01-30T06:15:37;97837.75;;;-0.63;90.97
4814;BME280;15375;48.540;9.268;2023-01-30T06:18:02;97791.28;;;-0.92;90.23
4814;BME280;15375;48.540;9.268;2023-01-30T06:20:28;97835.09;;;-0.63;90.01
4814;BME280;15375;48.540;9.268;2023-01-30T06:22:53;97820.78;;;-0.68;89.27
4814;BME280;15375;48.540;9.268;2023-01-30T06:25:19;97778.78;;;-0.88;88.93
4814;BME280;15375;48.540;9.268;2023-01-30T06:27:45;97825.84;;;-0.54;88.35
4814;BME280;15375;48.540;9.268;2023-01-30T06:30:11;97774.47;;;-0.68;86.09
4814;BME280;15375;48.540;9.268;2023-01-30T06:32:37;97798.25;;;-0.54;85.28
4814;BME280;15375;48.540;9.268;2023-01-30T06:35:03;97787.97;;;-0.65;85.23
4814;BME280;15375;48.540;9.268;2023-01-30T06:37:28;97768.78;;;-0.67;83.03
4814;BME280;15375;48.540;9.268;2023-01-30T06:39:53;97783.63;;;-0.57;82.95
4814;BME280;15375;48.540;9.268;2023-01-30T06:42:19;97783.63;;;-0.45;81.35
4814;BME280;15375;48.540;9.268;2023-01-30T06:44:44;97731.06;;;-0.74;81.01
4814;BME280;15375;48.540;9.268;2023-01-30T06:47:09;97729.34;;;-0.90;83.02
4814;BME280;15375;48.540;9.268;2023-01-30T06:49:35;97797.94;;;-0.53;83.38
4814;BME280;15375;48.540;9.268;2023-01-30T06:52:00;97796.03;;;-0.52;84.24
4814;BME280;15375;48.540;9.268;2023-01-30T06:54:26;97763.19;;;-0.74;84.92
4814;BME280;15375;48.540;9.268;2023-01-30T06:56:51;97770.13;;;-0.48;82.69
4814;BME280;15375;48.540;9.268;2023-01-30T06:59:17;97740.78;;;-0.69;82.55
4814;BME280;15375;48.540;9.268;2023-01-30T07:01:42;97711.31;;;-0.81;82.72
4814;BME280;15375;48.540;9.268;2023-01-30T07:04:08;97746.13;;;-0.57;83.91
4814;BME280;15375;48.540;9.268;2023-01-30T07:06:33;97744.81;;;-0.51;83.19
4814;BME280;15375;48.540;9.268;2023-01-30T07:08:58;97694.78;;;-0.83;84.56
4814;BME280;15375;48.540;9.268;2023-01-30T07:11:24;97770.78;;;-0.27;85.02
4814;BME280;15375;48.540;9.268;2023-01-30T07:13:50;97766.34;;;-0.35;85.31
4814;BME280;15375;48.540;9.268;2023-01-30T07:16:15;97762.22;;;-0.33;84.80
4814;BME280;15375;48.540;9.268;2023-01-30T07:18:41;97750.72;;;-0.33;83.31
4814;BME280;15375;48.540;9.268;2023-01-30T07:21:06;97772.38;;;-0.26;84.02
4814;BME280;15375;48.540;9.268;2023-01-30T07:23:31;97769.47;;;-0.33;85.23
4814;BME280;15375;48.540;9.268;2023-01-30T07:25:57;97761.00;;;-0.35;85.66
4814;BME280;15375;48.540;9.268;2023-01-30T07:28:22;97688.22;;;-0.86;84.57
4814;BME280;15375;48.540;9.268;2023-01-30T07:30:47;97764.34;;;-0.38;85.44
4814;BME280;15375;48.540;9.268;2023-01-30T07:33:16;97810.00;;;0.02;85.08
4814;BME280;15375;48.540;9.268;2023-01-30T07:35:42;97756.16;;;-0.42;83.85
4814;BME280;15375;48.540;9.268;2023-01-30T07:38:08;97727.84;;;-0.43;83.66
4814;BME280;15375;48.540;9.268;2023-01-30T07:40:33;97823.81;;;0.16;83.99
4814;BME280;15375;48.540;9.268;2023-01-30T07:43:10;97818.47;;;0.16;84.97
4814;BME280;15375;48.540;9.268;2023-01-30T07:45:38;97840.13;;;0.35;84.91
4814;BME280;15375;48.540;9.268;2023-01-30T07:48:04;97795.00;;;0.13;83.32
4814;BME280;15375;48.540;9.268;2023-01-30T07:50:30;97790.19;;;0.06;82.54
4814;BME280;15375;48.540;9.268;2023-01-30T07:52:55;97775.59;;;-0.09;81.93
4814;BME280;15375;48.540;9.268;2023-01-30T07:55:21;97825.38;;;0.29;83.04
4814;BME280;15375;48.540;9.268;2023-01-30T07:57:46;97793.09;;;0.13;83.22
4814;BME280;15375;48.540;9.268;2023-01-30T08:00:12;97812.78;;;0.17;83.49
4814;BME280;15375;48.540;9.268;2023-01-30T08:02:38;97783.19;;;0.02;83.41
4814;BME280;15375;48.540;9.268;2023-01-30T08:05:03;97805.59;;;0.21;83.47
4814;BME280;15375;48.540;9.268;2023-01-30T08:07:29;97831.94;;;0.43;82.98
4814;BME280;15375;48.540;9.268;2023-01-30T08:09:54;97810.03;;;0.41;82.56
4814;BME280;15375;48.540;9.268;2023-01-30T08:12:19;97774.28;;;0.25;83.42
4814;BME280;15375;48.540;9.268;2023-01-30T08:14:45;97732.88;;;0.11;83.32
4814;BME280;15375;48.540;9.268;2023-01-30T08:17:10;97757.09;;;0.26;83.36
4814;BME280;15375;48.540;9.268;2023-01-30T08:19:35;97745.75;;;0.33;83.21
4814;BME280;15375;48.540;9.268;2023-01-30T08:22:01;97807.47;;;0.73;84.25
4814;BME280;15375;48.540;9.268;2023-01-30T08:24:26;97780.00;;;0.63;84.41
4814;BME280;15375;48.540;9.268;2023-01-30T08:26:52;97808.53;;;0.84;83.94
4814;BME280;15375;48.540;9.268;2023-01-30T08:29:17;97827.78;;;0.86;83.84
4814;BME280;15375;48.540;9.268;2023-01-30T08:31:42;97819.28;;;0.84;84.52
4814;BME280;15375;48.540;9.268;2023-01-30T08:34:08;97850.22;;;1.05;84.89
4814;BME280;15375;48.540;9.268;2023-01-30T08:36:33;97806.22;;;0.82;84.10
4814;BME280;15375;48.540;9.268;2023-01-30T08:38:58;97785.41;;;0.79;85.42
4814;BME280;15375;48.540;9.268;2023-01-30T08:41:24;97829.22;;;1.11;85.01
4814;BME280;15375;48.540;9.268;2023-01-30T08:43:51;97816.03;;;1.06;85.85
4814;BME280;15375;48.540;9.268;2023-01-30T08:46:17;97813.59;;;1.01;86.51
4814;BME280;15375;48.540;9.268;2023-01-30T08:48:44;97802.88;;;1.01;85.94
4814;BME280;15375;48.540;9.268;2023-01-30T08:51:10;97826.03;;;1.05;85.89
4814;BME280;15375;48.540;9.268;2023-01-30T08:53:36;97818.94;;;1.13;86.06
4814;BME280;15375;48.540;9.268;2023-01-30T08:56:01;97837.88;;;1.32;86.50
4814;BME280;15375;48.540;9.268;2023-01-30T08:58:26;97819.31;;;1.27;86.11
4814;BME280;15375;48.540;9.268;2023-01-30T09:00:52;97840.41;;;1.56;86.75
4814;BME280;15375;48.540;9.268;2023-01-30T09:03:17;97799.56;;;1.35;86.04
4814;BME280;15375;48.540;9.268;2023-01-30T09:05:43;97793.50;;;1.38;87.07
4814;BME280;15375;48.540;9.268;2023-01-30T09:08:08;97789.50;;;1.32;86.80
4814;BME280;15375;48.540;9.268;2023-01-30T09:10:34;97820.03;;;1.55;87.49
4814;BME280;15375;48.540;9.268;2023-01-30T09:12:59;97781.59;;;1.39;88.24
4814;BME280;15375;48.540;9.268;2023-01-30T09:15:25;97777.38;;;1.38;88.14
4814;BME280;15375;48.540;9.268;2023-01-30T09:17:51;97761.00;;;1.43;88.42
4814;BME280;15375;48.540;9.268;2023-01-30T09:20:16;97767.75;;;1.68;88.32
4814;BME280;15375;48.540;9.268;2023-01-30T09:22:44;97738.75;;;1.77;87.78
4814;BME280;15375;48.540;9.268;2023-01-30T09:25:09;97757.81;;;2.42;86.05
4814;BME280;15375;48.540;9.268;2023-01-30T09:27:35;97688.25;;;2.63;82.84
4814;BME280;15375;48.540;9.268;2023-01-30T09:30:01;97742.00;;;3.43;81.52
4814;BME280;15375;48.540;9.268;2023-01-30T09:32:26;97751.75;;;3.74;79.25
4814;BME280;15375;48.540;9.268;2023-01-30T09:34:52;97729.97;;;4.12;77.60
4814;BME280;15375;48.540;9.268;2023-01-30T09:37:17;97722.50;;;4.02;76.10
4814;BME280;15375;48.540;9.268;2023-01-30T09:39:43;97700.03;;;3.95;75.36
4814;BME280;15375;48.540;9.268;2023-01-30T09:47:40;97717.59;;;4.41;74.11
4814;BME280;15375;48.540;9.268;2023-01-30T09:50:29;97739.38;;;4.88;72.90
4814;BME280;15375;48.540;9.268;2023-01-30T09:55:45;97725.56;;;4.60;73.22
4814;BME280;15375;48.540;9.268;2023-01-30T09:58:20;97697.03;;;4.66;71.36
4814;BME280;15375;48.540;9.268;2023-01-30T10:00:46;97705.97;;;4.70;72.53
4814;BME280;15375;48.540;9.268;2023-01-30T10:03:19;97719.94;;;4.42;74.44
4814;BME280;15375;48.540;9.268;2023-01-30T10:05:54;97736.06;;;4.35;74.44
4814;BME280;15375;48.540;9.268;2023-01-30T10:14:02;97714.56;;;3.86;77.44
4814;BME280;15375;48.540;9.268;2023-01-30T10:16:44;97696.09;;;3.62;78.18
4814;BME280;15375;48.540;9.268;2023-01-30T10:27:15;97673.84;;;3.69;81.23
4814;BME280;15375;48.540;9.268;2023-01-30T10:29:44;97694.16;;;3.89;81.36
4814;BME280;15375;48.540;9.268;2023-01-30T10:32:19;97670.47;;;4.35;79.45
4814;BME280;15375;48.540;9.268;2023-01-30T10:34:52;97666.53;;;4.62;77.33
4814;BME280;15375;48.540;9.268;2023-01-30T10:37:28;97665.53;;;5.21;76.57
4814;BME280;15375;48.540;9.268;2023-01-30T10:40:18;97677.13;;;5.22;75.04
4814;BME280;15375;48.540;9.268;2023-01-30T10:46:15;97685.31;;;4.51;79.21
4814;BME280;15375;48.540;9.268;2023-01-30T10:51:49;97672.09;;;4.13;82.28
4814;BME280;15375;48.540;9.268;2023-01-30T10:54:27;97693.22;;;4.04;83.13
4814;BME280;15375;48.540;9.268;2023-01-30T10:59:56;97681.69;;;4.07;85.70
4814;BME280;15375;48.540;9.268;2023-01-30T11:02:31;97646.72;;;3.88;85.27
4814;BME280;15375;48.540;9.268;2023-01-30T11:05:03;97673.38;;;3.93;85.63
4814;BME280;15375;48.540;9.268;2023-01-30T11:07:33;97676.06;;;3.90;86.85
4814;BME280;15375;48.540;9.268;2023-01-30T11:09:59;97700.69;;;3.88;88.45
4814;BME280;15375;48.540;9.268;2023-01-30T11:12:25;97696.63;;;4.01;88.22
4814;BME280;15375;48.540;9.268;2023-01-30T11:17:18;97702.50;;;4.07;87.84
4814;BME280;15375;48.540;9.268;2023-01-30T11:19:44;97711.38;;;4.07;87.54
4814;BME280;15375;48.540;9.268;2023-01-30T11:22:17;97691.63;;;4.00;87.55
4814;BME280;15375;48.540;9.268;2023-01-30T11:24:44;97712.19;;;4.11;87.59
4814;BME280;15375;48.540;9.268;2023-01-30T11:27:18;97688.69;;;4.12;87.30
4814;BME280;15375;48.540;9.268;2023-01-30T11:29:45;97676.78;;;4.16;86.66
4814;BME280;15375;48.540;9.268;2023-01-30T11:32:14;97669.38;;;4.10;87.39
4814;BME280;15375;48.540;9.268;2023-01-30T11:35:01;97688.69;;;4.12;88.18
4814;BME280;15375;48.540;9.268;2023-01-30T11:37:35;97678.59;;;4.05;88.02
4814;BME280;15375;48.540;9.268;2023-01-30T11:42:46;97687.09;;;4.07;89.19
4814;BME280;15375;48.540;9.268;2023-01-30T11:45:17;97632.81;;;3.86;89.39
4814;BME280;15375;48.540;9.268;2023-01-30T11:47:49;97677.69;;;4.27;89.03
4814;BME280;15375;48.540;9.268;2023-01-30T11:50:17;97649.31;;;4.11;89.16
4814;BME280;15375;48.540;9.268;2023-01-30T11:52:44;97661.09;;;4.25;89.85
4814;BME280;15375;48.540;9.268;2023-01-30T11:55:14;97679.75;;;4.37;90.29
4814;BME280;15375;48.540;9.268;2023-01-30T11:57:42;97641.22;;;4.07;90.73
4814;BME280;15375;48.540;9.268;2023-01-30T12:00:19;97667.56;;;4.21;91.89
4814;BME280;15375;48.540;9.268;2023-01-30T12:02:47;97674.13;;;4.20;91.67
4814;BME280;15375;48.540;9.268;2023-01-30T12:05:32;97684.56;;;4.21;92.14
4814;BME280;15375;48.540;9.268;2023-01-30T12:10:43;97652.88;;;4.18;92.98
4814;BME280;15375;48.540;9.268;2023-01-30T12:13:23;97654.84;;;4.18;93.56
4814;BME280;15375;48.540;9.268;2023-01-30T12:15:56;97642.00;;;4.11;92.80
4814;BME280;15375;48.540;9.268;2023-01-30T12:18:31;97648.91;;;4.09;93.74
4814;BME280;15375;48.540;9.268;2023-01-30T12:21:01;97663.69;;;4.18;94.43
4814;BME280;15375;48.540;9.268;2023-01-30T12:23:37;97659.84;;;4.19;95.30
4814;BME280;15375;48.540;9.268;2023-01-30T12:26:19;97649.88;;;4.23;95.67
4814;BME280;15375;48.540;9.268;2023-01-30T12:28:57;97655.69;;;4.25;95.83
4814;BME280;15375;48.540;9.268;2023-01-30T12:31:46;97635.84;;;4.11;98.25
4814;BME280;15375;48.540;9.268;2023-01-30T12:34:12;97647.72;;;4.06;99.15
4814;BME280;15375;48.540;9.268;2023-01-30T12:45:29;97651.22;;;4.07;100.00
4814;BME280;15375;48.540;9.268;2023-01-30T13:06:56;97652.50;;;3.86;100.00
4814;BME280;15375;48.540;9.268;2023-01-30T13:10:02;97666.78;;;3.87;100.00
4814;BME280;15375;48.540;9.268;2023-01-30T13:17:48;97688.19;;;3.76;100.00
4814;BME280;15375;48.540;9.268;2023-01-30T13:23:35;97659.38;;;3.54;100.00
4814;BME280;15375;48.540;9.268;2023-01-30T13:26:09;97668.38;;;3.65;100.00
4814;BME280;15375;48.540;9.268;2023-01-30T13:28:48;97689.28;;;3.72;100.00
4814;BME280;15375;48.540;9.268;2023-01-30T13:31:18;97690.06;;;3.72;100.00
4814;BME280;15375;48.540;9.268;2023-01-30T13:33:47;97693.53;;;3.73;100.00
4814;BME280;15375;48.540;9.268;2023-01-30T13:36:17;97691.69;;;3.77;100.00
4814;BME280;15375;48.540;9.268;2023-01-30T13:41:23;97696.66;;;3.75;100.00
4814;BME280;15375;48.540;9.268;2023-01-30T13:43:51;97711.59;;;3.69;100.00
4814;BME280;15375;48.540;9.268;2023-01-30T13:46:23;97707.34;;;3.68;100.00
4814;BME280;15375;48.540;9.268;2023-01-30T13:56:44;97730.56;;;3.50;100.00
4814;BME280;15375;48.540;9.268;2023-01-30T14:02:16;97742.84;;;3.47;100.00
4814;BME280;15375;48.540;9.268;2023-01-30T14:04:55;97733.13;;;3.43;100.00
4814;BME280;15375;48.540;9.268;2023-01-30T14:07:29;97734.22;;;3.38;100.00
4814;BME280;15375;48.540;9.268;2023-01-30T14:10:13;97734.47;;;3.30;100.00
4814;BME280;15375;48.540;9.268;2023-01-30T14:12:41;97749.47;;;3.27;100.00
4814;BME280;15375;48.540;9.268;2023-01-30T14:18:05;97764.72;;;3.19;100.00
4814;BME280;15375;48.540;9.268;2023-01-30T14:20:34;97757.16;;;3.29;100.00
4814;BME280;15375;48.540;9.268;2023-01-30T14:23:03;97740.31;;;3.12;100.00
4814;BME280;15375;48.540;9.268;2023-01-30T14:33:00;97738.69;;;2.85;100.00
4814;BME280;15375;48.540;9.268;2023-01-30T14:35:27;97777.50;;;3.03;100.00
4814;BME280;15375;48.540;9.268;2023-01-30T14:38:16;97776.31;;;3.01;100.00
4814;BME280;15375;48.540;9.268;2023-01-30T14:40:47;97772.28;;;2.91;100.00
4814;BME280;15375;48.540;9.268;2023-01-30T14:45:52;97783.41;;;2.90;100.00
4814;BME280;15375;48.540;9.268;2023-01-30T14:48:34;97795.94;;;2.82;100.00
4814;BME280;15375;48.540;9.268;2023-01-30T14:53:55;97813.13;;;2.74;100.00
4814;BME280;15375;48.540;9.268;2023-01-30T14:59:07;97821.78;;;2.64;100.00
4814;BME280;15375;48.540;9.268;2023-01-30T15:04:26;97833.38;;;2.68;100.00
4814;BME280;15375;48.540;9.268;2023-01-30T15:06:54;97824.28;;;2.57;100.00
4814;BME280;15375;48.540;9.268;2023-01-30T15:09:23;97811.75;;;2.45;100.00
4814;BME280;15375;48.540;9.268;2023-01-30T15:12:05;97831.09;;;2.51;100.00
4814;BME280;15375;48.540;9.268;2023-01-30T15:14:49;97791.03;;;2.30;100.00
4814;BME280;15375;48.540;9.268;2023-01-30T15:17:44;97832.22;;;2.50;100.00
4814;BME280;15375;48.540;9.268;2023-01-30T15:23:11;97820.09;;;2.40;100.00
4814;BME280;15375;48.540;9.268;2023-01-30T15:26:16;97842.56;;;2.48;100.00
4814;BME280;15375;48.540;9.268;2023-01-30T15:31:35;97858.03;;;2.51;100.00
4814;BME280;15375;48.540;9.268;2023-01-30T15:34:01;97845.34;;;2.51;100.00
4814;BME280;15375;48.540;9.268;2023-01-30T15:36:34;97859.75;;;2.59;100.00